Time;durP1;ratioP1;P1;durP2;ratioP2;P2;SDS_P1;SDS_P2;PMS_P1;PMS_P2;Temp;Humidity;BMP_temperature;BMP_pressure;BME280_temperature;BME280_humidity;BME280_pressure;Samples;Min_cycle;Max_cycle;Signal;HPM_P1;HPM_P2
2022/08/28 00:00:33;;;;;;;18.15;7.40;;;;;;;-144.48;100.00;62369.91;4984903;28;20047;-68
2022/08/28 00:02:59;;;;;;;15.82;7.00;;;;;;;-144.48;100.00;62369.91;4977819;28;20031;-69
2022/08/28 00:05:26;;;;;;;19.65;7.93;;;;;;;-144.48;100.00;62369.91;5012406;28;20052;-68
2022/08/28 00:07:52;;;;;;;23.83;7.35;;;;;;;-144.48;100.00;62369.91;5012328;28;20036;-68
2022/08/28 00:10:19;;;;;;;19.02;7.47;;;;;;;-144.48;100.00;62369.91;5012097;28;20021;-68
2022/08/28 00:12:46;;;;;;;17.00;6.95;;;;;;;-144.48;100.00;62369.91;5012373;28;20021;-70
2022/08/28 00:15:18;;;;;;;18.88;6.72;;;;;;;-144.48;100.00;62369.91;5012169;28;20101;-68
2022/08/28 00:17:44;;;;;;;21.45;6.28;;;;;;;-144.48;100.00;62369.91;5009619;28;20084;-70
2022/08/28 00:20:12;;;;;;;17.65;5.88;;;;;;;-144.48;100.00;62369.91;4983683;28;20023;-70
2022/08/28 00:22:38;;;;;;;14.93;5.03;;;;;;;-144.48;100.00;62369.91;4976114;28;21483;-68
2022/08/28 00:25:06;;;;;;;18.88;5.65;;;;;;;-144.48;100.00;62369.91;4983763;28;20034;-69
2022/08/28 00:30:16;;;;;;;12.88;4.32;;;;;;;-144.48;100.00;62369.91;4980764;28;20479;-68
2022/08/28 00:32:42;;;;;;;16.95;4.70;;;;;;;-144.48;100.00;62369.91;4982876;28;20491;-66
2022/08/28 00:35:07;;;;;;;17.92;4.03;;;;;;;-144.48;100.00;62369.91;5004414;28;20036;-67
2022/08/28 00:37:34;;;;;;;15.10;4.15;;;;;;;-144.48;100.00;62369.91;5011798;28;20116;-68
2022/08/28 00:39:59;;;;;;;18.63;3.92;;;;;;;-144.48;100.00;62369.91;5011889;28;20534;-68
2022/08/28 00:42:25;;;;;;;17.05;4.43;;;;;;;-144.48;100.00;62369.91;5011563;28;20033;-69
2022/08/28 00:44:50;;;;;;;14.27;3.72;;;;;;;-144.48;100.00;62369.91;5011999;28;20037;-68
2022/08/28 00:47:15;;;;;;;14.60;3.92;;;;;;;-144.48;100.00;62369.91;5011962;28;20064;-66
2022/08/28 00:49:48;;;;;;;21.35;3.67;;;;;;;-144.48;100.00;62369.91;5010783;28;20021;-68
2022/08/28 00:52:14;;;;;;;19.15;3.65;;;;;;;-144.48;100.00;62369.91;5008529;28;20080;-68
2022/08/28 00:54:55;;;;;;;18.88;3.28;;;;;;;-144.48;100.00;62369.91;4999230;28;20369;-67
2022/08/28 00:57:26;;;;;;;15.02;3.38;;;;;;;-144.48;100.00;62369.91;4978508;28;20034;-68
2022/08/28 00:59:51;;;;;;;12.25;3.10;;;;;;;-144.48;100.00;62369.91;5006947;28;20026;-68
2022/08/28 01:02:17;;;;;;;30.27;4.88;;;;;;;-144.48;100.00;62369.91;4992886;28;20026;-67
2022/08/28 01:04:44;;;;;;;18.52;3.90;;;;;;;-144.48;100.00;62369.91;4988506;28;20080;-68
2022/08/28 01:07:13;;;;;;;23.73;4.20;;;;;;;-144.48;100.00;62369.91;5011582;28;20034;-66
2022/08/28 01:09:42;;;;;;;23.33;4.30;;;;;;;-144.48;100.00;62369.91;4998254;28;20141;-67
2022/08/28 01:12:13;;;;;;;14.13;4.35;;;;;;;-144.48;100.00;62369.91;5011618;28;20021;-67
2022/08/28 01:14:44;;;;;;;10.27;3.22;;;;;;;-144.48;100.00;62369.91;4996192;28;20435;-68
2022/08/28 01:17:12;;;;;;;17.58;3.60;;;;;;;-144.48;100.00;62369.91;5002570;28;20026;-67
2022/08/28 01:19:56;;;;;;;17.35;3.95;;;;;;;-144.48;100.00;62369.91;5011186;28;20364;-67
2022/08/28 01:22:38;;;;;;;22.10;3.70;;;;;;;-144.48;100.00;62369.91;4997092;28;20022;-68
2022/08/28 01:25:12;;;;;;;15.02;3.88;;;;;;;-144.48;100.00;62369.91;4981813;28;20027;-68
2022/08/28 01:27:40;;;;;;;19.33;3.88;;;;;;;-144.48;100.00;62369.91;5005577;28;20021;-66
2022/08/28 01:30:08;;;;;;;13.20;4.07;;;;;;;-144.48;100.00;62369.91;5011324;28;20037;-69
2022/08/28 01:32:39;;;;;;;13.63;3.25;;;;;;;-144.48;100.00;62369.91;5007211;28;20030;-67
2022/08/28 01:35:08;;;;;;;23.58;4.38;;;;;;;-144.48;100.00;62369.91;4995063;28;20025;-68
2022/08/28 01:37:35;;;;;;;;;;;;;;;-144.48;100.00;62369.91;4987690;28;20023;-67
2022/08/28 01:40:01;;;;;;;15.07;3.15;;;;;;;-144.48;100.00;62369.91;4972239;28;19918;-68
2022/08/28 01:42:26;;;;;;;15.90;3.22;;;;;;;-144.48;100.00;62369.91;4977210;28;20030;-67
2022/08/28 01:44:53;;;;;;;14.35;3.08;;;;;;;-144.48;100.00;62369.91;5003686;28;20064;-69
2022/08/28 01:47:19;;;;;;;18.50;3.60;;;;;;;-144.48;100.00;62369.91;5004947;28;20373;-67
2022/08/28 01:49:44;;;;;;;18.42;3.38;;;;;;;-144.48;100.00;62369.91;5003777;28;20095;-67
2022/08/28 01:52:10;;;;;;;16.88;4.15;;;;;;;-144.48;100.00;62369.91;5010887;28;20523;-69
2022/08/28 01:54:35;;;;;;;19.75;3.72;;;;;;;-144.48;100.00;62369.91;4998426;28;20025;-67
2022/08/28 01:57:01;;;;;;;12.30;3.55;;;;;;;-144.48;100.00;62369.91;4977625;28;20022;-68
2022/08/28 01:59:26;;;;;;;16.27;3.35;;;;;;;-144.48;100.00;62369.91;4979727;28;20568;-67
2022/08/28 02:01:54;;;;;;;13.15;3.60;;;;;;;-144.48;100.00;62369.91;4972454;28;20045;-68
2022/08/28 02:04:19;;;;;;;15.55;3.00;;;;;;;-144.48;100.00;62369.91;4971792;28;20111;-67
2022/08/28 02:06:45;;;;;;;25.67;3.03;;;;;;;-144.48;100.00;62369.91;4982062;28;20104;-68
2022/08/28 02:09:10;;;;;;;13.52;3.15;;;;;;;-144.48;100.00;62369.91;5010409;28;20145;-70
2022/08/28 02:11:38;;;;;;;17.67;2.63;;;;;;;-144.48;100.00;62369.91;5010590;28;20037;-68
2022/08/28 02:14:04;;;;;;;21.33;4.32;;;;;;;-144.48;100.00;62369.91;5010492;28;20156;-66
2022/08/28 02:16:29;;;;;;;15.40;3.40;;;;;;;-144.48;100.00;62369.91;5003202;28;20093;-71
2022/08/28 02:18:55;;;;;;;20.17;3.40;;;;;;;-144.48;100.00;62369.91;4978521;28;20173;-68
2022/08/28 02:21:21;;;;;;;11.57;2.95;;;;;;;-144.48;100.00;62369.91;5002742;28;20446;-68
2022/08/28 02:23:46;;;;;;;18.00;2.55;;;;;;;-144.48;100.00;62369.91;4990108;28;20478;-68
2022/08/28 02:26:13;;;;;;;23.08;3.63;;;;;;;-144.48;100.00;62369.91;5005703;28;20026;-70
2022/08/28 02:28:39;;;;;;;16.98;3.40;;;;;;;-144.48;100.00;62369.91;5009930;28;20053;-66
2022/08/28 02:31:08;;;;;;;14.55;3.33;;;;;;;-144.48;100.00;62369.91;5009823;28;20054;-65
2022/08/28 02:33:38;;;;;;;13.95;2.92;;;;;;;-144.48;100.00;62369.91;5002748;28;20018;-67
2022/08/28 02:36:06;;;;;;;13.73;3.13;;;;;;;-144.48;100.00;62369.91;4971107;28;20030;-69
2022/08/28 02:38:32;;;;;;;21.00;2.80;;;;;;;-144.48;100.00;62369.91;4972012;28;20027;-69
2022/08/28 02:40:57;;;;;;;22.00;2.85;;;;;;;-144.48;100.00;62369.91;5003107;28;20026;-68
2022/08/28 02:43:22;;;;;;;9.85;3.08;;;;;;;-144.48;100.00;62369.91;5003484;28;20037;-69
2022/08/28 02:45:48;;;;;;;16.63;3.30;;;;;;;-144.48;100.00;62369.91;4997002;28;20022;-69
2022/08/28 02:48:13;;;;;;;18.38;3.40;;;;;;;-144.48;100.00;62369.91;5009542;28;20026;-67
2022/08/28 02:50:39;;;;;;;12.48;3.28;;;;;;;-144.48;100.00;62369.91;4983944;28;20029;-67
2022/08/28 02:53:04;;;;;;;10.85;2.97;;;;;;;-144.48;100.00;62369.91;4997093;28;20036;-66
2022/08/28 02:55:30;;;;;;;18.38;3.17;;;;;;;-144.48;100.00;62369.91;5009834;28;20030;-68
2022/08/28 02:57:56;;;;;;;13.70;3.10;;;;;;;-144.48;100.00;62369.91;5009499;28;20053;-69
2022/08/28 03:00:25;;;;;;;19.88;2.88;;;;;;;-144.48;100.00;62369.91;4996890;28;20057;-67
2022/08/28 03:02:51;;;;;;;27.20;4.53;;;;;;;-144.48;100.00;62369.91;4983715;28;20027;-66
2022/08/28 03:05:22;;;;;;;21.58;3.35;;;;;;;-144.48;100.00;62369.91;5003525;28;20536;-69
2022/08/28 03:07:49;;;;;;;14.85;3.05;;;;;;;-144.48;100.00;62369.91;4983595;28;20018;-69
2022/08/28 03:10:15;;;;;;;15.95;2.78;;;;;;;-144.48;100.00;62369.91;5004545;28;20112;-65
2022/08/28 03:12:40;;;;;;;11.90;2.83;;;;;;;-144.48;100.00;62369.91;5014601;28;20121;-67
2022/08/28 03:15:06;;;;;;;21.13;3.33;;;;;;;-144.48;100.00;62369.91;5008700;28;20419;-68
2022/08/28 03:17:33;;;;;;;12.18;2.88;;;;;;;-144.48;100.00;62369.91;5009339;28;20034;-70
2022/08/28 03:19:59;;;;;;;21.35;4.15;;;;;;;-144.48;100.00;62369.91;4989426;28;20027;-66
2022/08/28 03:25:10;;;;;;;16.13;3.33;;;;;;;-144.48;100.00;62369.91;5006967;28;20113;-68
2022/08/28 03:27:35;;;;;;;17.02;3.85;;;;;;;-144.48;100.00;62369.91;4994874;28;20064;-69
2022/08/28 03:30:01;;;;;;;16.17;3.00;;;;;;;-144.48;100.00;62369.91;4977104;28;20105;-66
2022/08/28 03:32:27;;;;;;;15.88;3.55;;;;;;;-144.48;100.00;62369.91;5006834;28;20025;-66
2022/08/28 03:34:52;;;;;;;15.93;3.35;;;;;;;-144.48;100.00;62369.91;5006300;28;20018;-68
2022/08/28 03:37:18;;;;;;;18.48;2.65;;;;;;;-144.48;100.00;62369.91;5002368;28;20044;-67
2022/08/28 03:39:44;;;;;;;17.58;3.22;;;;;;;-144.48;100.00;62369.91;5014571;28;20022;-68
2022/08/28 03:42:10;;;;;;;21.90;3.30;;;;;;;-144.48;100.00;62369.91;5012680;28;20486;-69
2022/08/28 03:44:37;;;;;;;26.45;3.95;;;;;;;-144.48;100.00;62369.91;5006329;28;20488;-69
2022/08/28 03:47:03;;;;;;;17.13;2.83;;;;;;;-144.48;100.00;62369.91;4996613;28;20113;-69
2022/08/28 03:49:29;;;;;;;13.70;2.63;;;;;;;-144.48;100.00;62369.91;4977115;28;20029;-69
2022/08/28 03:51:55;;;;;;;12.63;2.90;;;;;;;-144.48;100.00;62369.91;4980514;28;20121;-70
2022/08/28 03:54:21;;;;;;;19.30;3.95;;;;;;;-144.48;100.00;62369.91;4986682;28;20106;-67
2022/08/28 03:56:46;;;;;;;11.55;3.03;;;;;;;-144.48;100.00;62369.91;4981312;28;20472;-66
2022/08/28 03:59:11;;;;;;;20.08;3.47;;;;;;;-144.48;100.00;62369.91;5005737;28;20033;-68
2022/08/28 04:01:37;;;;;;;18.13;3.17;;;;;;;-144.48;100.00;62369.91;5007515;28;20069;-68
2022/08/28 04:04:03;;;;;;;23.52;4.20;;;;;;;-144.48;100.00;62369.91;4996879;28;20045;-69
2022/08/28 04:06:29;;;;;;;15.90;2.90;;;;;;;-144.48;100.00;62369.91;5002947;28;20113;-70
2022/08/28 04:08:55;;;;;;;15.00;3.22;;;;;;;-144.48;100.00;62369.91;5014328;28;20104;-68
2022/08/28 04:11:21;;;;;;;22.58;5.13;;;;;;;-144.48;100.00;62369.91;5002973;28;20038;-67
2022/08/28 04:13:46;;;;;;;17.20;3.65;;;;;;;-144.48;100.00;62369.91;5005464;28;20380;-67
2022/08/28 04:16:15;;;;;;;26.20;3.70;;;;;;;-144.48;100.00;62369.91;5008999;28;20069;-70
2022/08/28 04:18:42;;;;;;;21.08;3.47;;;;;;;-144.48;100.00;62369.91;5003079;28;20036;-66
2022/08/28 04:21:10;;;;;;;26.52;5.88;;;;;;;-144.48;100.00;62369.91;4999377;28;20491;-68
2022/08/28 04:23:37;;;;;;;21.17;3.55;;;;;;;-144.48;100.00;62369.91;4995940;28;20026;-68
2022/08/28 04:26:04;;;;;;;18.65;3.72;;;;;;;-144.48;100.00;62369.91;5006449;28;20484;-68
2022/08/28 04:28:31;;;;;;;17.92;3.50;;;;;;;-144.48;100.00;62369.91;4998883;28;20030;-67
2022/08/28 04:30:57;;;;;;;15.65;3.38;;;;;;;-144.48;100.00;62369.91;4985217;28;20104;-66
2022/08/28 04:33:24;;;;;;;16.65;3.38;;;;;;;-144.48;100.00;62369.91;5006379;28;20286;-67
2022/08/28 04:35:51;;;;;;;18.00;3.70;;;;;;;-144.48;100.00;62369.91;4985377;28;20022;-69
2022/08/28 04:38:17;;;;;;;14.35;3.30;;;;;;;-144.48;100.00;62369.91;5012305;28;20022;-69
2022/08/28 04:40:42;;;;;;;16.52;3.88;;;;;;;-144.48;100.00;62369.91;5006573;28;20141;-67
2022/08/28 04:43:08;;;;;;;15.63;3.42;;;;;;;-144.48;100.00;62369.91;4979341;28;20019;-68
2022/08/28 04:45:42;;;;;;;14.27;3.20;;;;;;;-144.48;100.00;62369.91;4978355;28;20499;-69
2022/08/28 04:48:11;;;;;;;22.40;4.07;;;;;;;-144.48;100.00;62369.91;4962115;28;20059;-69
2022/08/28 04:50:39;;;;;;;20.85;3.05;;;;;;;-144.48;100.00;62369.91;4972928;28;20481;-68
2022/08/28 04:53:05;;;;;;;19.50;3.30;;;;;;;-144.48;100.00;62369.91;4973211;28;20042;-68
2022/08/28 04:55:30;;;;;;;23.08;4.22;;;;;;;-144.48;100.00;62369.91;5005477;28;20037;-69
2022/08/28 04:57:55;;;;;;;27.35;4.13;;;;;;;-144.48;100.00;62369.91;5005035;28;20468;-69
2022/08/28 05:00:22;;;;;;;18.02;3.60;;;;;;;-144.48;100.00;62369.91;5005521;28;20037;-68
2022/08/28 05:02:48;;;;;;;27.17;4.70;;;;;;;-144.48;100.00;62369.91;4979764;28;20300;-70
2022/08/28 05:05:13;;;;;;;22.63;4.75;;;;;;;-144.48;100.00;62369.91;4997304;28;20168;-68
2022/08/28 05:07:38;;;;;;;19.05;4.35;;;;;;;-144.48;100.00;62369.91;4998594;28;20054;-70
2022/08/28 05:10:04;;;;;;;18.40;3.42;;;;;;;-144.48;100.00;62369.91;5012213;28;20399;-69
2022/08/28 05:12:29;;;;;;;25.08;3.45;;;;;;;-144.48;100.00;62369.91;4999146;28;20515;-69
2022/08/28 05:14:55;;;;;;;27.63;3.90;;;;;;;-144.48;100.00;62369.91;5006823;28;20084;-69
2022/08/28 05:17:20;;;;;;;17.80;3.80;;;;;;;-144.48;100.00;62369.91;5004825;28;20033;-68
2022/08/28 05:19:47;;;;;;;14.15;3.63;;;;;;;-144.48;100.00;62369.91;4998847;28;20109;-68
2022/08/28 05:22:12;;;;;;;23.38;4.25;;;;;;;-144.48;100.00;62369.91;5010236;28;20026;-66
2022/08/28 05:24:39;;;;;;;26.35;4.45;;;;;;;-144.48;100.00;62369.91;4997496;28;20029;-67
2022/08/28 05:27:05;;;;;;;25.27;5.15;;;;;;;-144.48;100.00;62369.91;5010557;28;20029;-68
2022/08/28 05:29:31;;;;;;;21.63;4.15;;;;;;;-144.48;100.00;62369.91;4983964;28;20030;-68
2022/08/28 05:31:56;;;;;;;18.40;4.00;;;;;;;-144.48;100.00;62369.91;4972111;28;20018;-68
2022/08/28 05:34:22;;;;;;;18.27;3.38;;;;;;;-144.48;100.00;62369.91;5002390;28;20109;-68
2022/08/28 05:36:47;;;;;;;18.73;3.30;;;;;;;-144.48;100.00;62369.91;5010667;28;20224;-66
2022/08/28 05:39:13;;;;;;;21.67;4.20;;;;;;;-144.48;100.00;62369.91;5012270;28;20030;-69
2022/08/28 05:41:42;;;;;;;20.40;3.47;;;;;;;-144.48;100.00;62369.91;5010964;28;20040;-70
2022/08/28 05:44:10;;;;;;;17.38;3.53;;;;;;;-144.48;100.00;62369.91;4997452;28;20484;-67
2022/08/28 05:46:38;;;;;;;22.77;3.58;;;;;;;-144.48;100.00;62369.91;5010396;28;20487;-67
2022/08/28 05:49:04;;;;;;;18.13;3.45;;;;;;;-144.48;100.00;62369.91;4985218;28;20029;-67
2022/08/28 05:51:30;;;;;;;20.15;3.05;;;;;;;-144.48;100.00;62369.91;4996953;28;20034;-67
2022/08/28 05:53:57;;;;;;;21.77;4.50;;;;;;;-144.48;100.00;62369.91;4971263;28;20077;-66
2022/08/28 05:56:26;;;;;;;21.73;3.65;;;;;;;-144.48;100.00;62369.91;4998496;28;20109;-66
2022/08/28 05:58:51;;;;;;;22.60;4.05;;;;;;;-144.48;100.00;62369.91;4995983;28;20033;-69
2022/08/28 06:01:20;;;;;;;19.38;3.92;;;;;;;-144.48;100.00;62369.91;4995492;28;20084;-71
2022/08/28 06:03:53;;;;;;;22.98;4.32;;;;;;;-144.48;100.00;62369.91;4971254;28;20031;-69
2022/08/28 06:06:19;;;;;;;26.60;4.47;;;;;;;-144.48;100.00;62369.91;5001997;28;20022;-72
2022/08/28 06:08:45;;;;;;;14.00;3.53;;;;;;;-144.48;100.00;62369.91;5001518;28;20030;-73
2022/08/28 06:11:10;;;;;;;20.77;5.07;;;;;;;-144.48;100.00;62369.91;5003869;28;20111;-67
2022/08/28 06:13:37;;;;;;;22.42;3.75;;;;;;;-144.48;100.00;62369.91;4999143;28;20052;-68
2022/08/28 06:16:02;;;;;;;28.25;5.57;;;;;;;-144.48;100.00;62369.91;4992177;28;20113;-67
2022/08/28 06:18:28;;;;;;;15.25;3.42;;;;;;;-144.48;100.00;62369.91;4985875;28;20471;-70
2022/08/28 06:20:54;;;;;;;28.25;4.95;;;;;;;-144.48;100.00;62369.91;5009925;28;20018;-69
2022/08/28 06:23:21;;;;;;;18.70;3.72;;;;;;;-144.48;100.00;62369.91;5009691;28;20056;-66
2022/08/28 06:25:49;;;;;;;22.80;4.90;;;;;;;-144.48;100.00;62369.91;4994407;28;20384;-69
2022/08/28 06:28:22;;;;;;;22.38;4.10;;;;;;;-144.48;100.00;62369.91;4978195;28;20180;-67
2022/08/28 06:30:49;;;;;;;18.35;3.70;;;;;;;-144.48;100.00;62369.91;5005623;28;20421;-69
2022/08/28 06:33:19;;;;;;;19.08;5.00;;;;;;;-144.48;100.00;62369.91;5005142;28;20026;-69
2022/08/28 06:35:48;;;;;;;11.63;3.70;;;;;;;-144.48;100.00;62369.91;4977380;28;20022;-68
2022/08/28 06:38:14;;;;;;;19.05;4.60;;;;;;;-144.48;100.00;62369.91;5000139;28;20028;-70
2022/08/28 06:40:43;;;;;;;30.20;4.63;;;;;;;-144.48;100.00;62369.91;4996028;28;20040;-72
2022/08/28 06:43:09;;;;;;;;;;;;;;;-144.48;100.00;62369.91;5000398;28;20058;-75
2022/08/28 06:45:39;;;;;;;24.05;4.93;;;;;;;-144.48;100.00;62369.91;5003427;28;20363;-71
2022/08/28 06:48:05;;;;;;;20.08;4.18;;;;;;;-144.48;100.00;62369.91;4980295;28;20034;-71
2022/08/28 06:50:31;;;;;;;21.60;4.00;;;;;;;-144.48;100.00;62369.91;5003111;28;20026;-75
2022/08/28 06:52:57;;;;;;;33.17;4.90;;;;;;;-144.48;100.00;62369.91;5010077;28;20034;-67
2022/08/28 06:55:23;;;;;;;20.13;3.67;;;;;;;-144.48;100.00;62369.91;4988473;28;20165;-67
2022/08/28 06:57:48;;;;;;;20.33;3.97;;;;;;;-144.48;100.00;62369.91;4970615;28;20669;-71
2022/08/28 07:00:13;;;;;;;16.23;3.97;;;;;;;-144.48;100.00;62369.91;4974098;28;20427;-70
2022/08/28 07:02:39;;;;;;;15.38;4.00;;;;;;;-144.48;100.00;62369.91;4978481;28;20508;-71
2022/08/28 07:05:05;;;;;;;23.33;4.70;;;;;;;-144.48;100.00;62369.91;4996904;28;20031;-70
2022/08/28 07:07:30;;;;;;;23.77;3.78;;;;;;;-144.48;100.00;62369.91;4970309;28;20102;-70
2022/08/28 07:09:56;;;;;;;21.33;3.75;;;;;;;-144.48;100.00;62369.91;4975361;28;20137;-69
2022/08/28 07:12:21;;;;;;;14.18;3.55;;;;;;;-144.48;100.00;62369.91;4989489;28;20054;-67
2022/08/28 07:14:46;;;;;;;16.77;4.15;;;;;;;-144.48;100.00;62369.91;4998896;28;20380;-69
2022/08/28 07:17:12;;;;;;;23.00;4.28;;;;;;;-144.48;100.00;62369.91;5001818;28;20419;-68
2022/08/28 07:19:37;;;;;;;25.42;4.38;;;;;;;-144.48;100.00;62369.91;5009460;28;20048;-70
2022/08/28 07:22:03;;;;;;;14.48;3.83;;;;;;;-144.48;100.00;62369.91;5000707;28;20031;-70
2022/08/28 07:24:29;;;;;;;23.23;4.63;;;;;;;-144.48;100.00;62369.91;4983954;28;20033;-71
2022/08/28 07:26:55;;;;;;;17.05;4.43;;;;;;;-144.48;100.00;62369.91;4970464;28;20023;-73
2022/08/28 07:29:21;;;;;;;21.33;4.30;;;;;;;-144.48;100.00;62369.91;4975025;28;20353;-69
2022/08/28 07:31:51;;;;;;;24.30;5.28;;;;;;;-144.48;100.00;62369.91;4977269;28;20022;-67
2022/08/28 07:34:19;;;;;;;15.40;4.13;;;;;;;-144.48;100.00;62369.91;4977483;28;20023;-68
2022/08/28 07:36:45;;;;;;;14.25;4.28;;;;;;;-144.48;100.00;62369.91;4988481;28;20022;-70
2022/08/28 07:39:12;;;;;;;25.45;4.32;;;;;;;-144.48;100.00;62369.91;4984680;28;20542;-70
2022/08/28 07:41:41;;;;;;;21.25;4.05;;;;;;;-144.48;100.00;62369.91;4970091;28;20504;-71
2022/08/28 07:46:59;;;;;;;17.80;3.60;;;;;;;-144.48;100.00;62369.91;5004398;28;20038;-70
2022/08/28 07:49:25;;;;;;;23.25;4.65;;;;;;;-144.48;100.00;62369.91;5008546;28;20026;-70
2022/08/28 07:51:51;;;;;;;15.52;3.20;;;;;;;-144.48;100.00;62369.91;4993088;28;20037;-69
2022/08/28 07:54:16;;;;;;;18.65;4.40;;;;;;;-144.48;100.00;62369.91;4992169;28;20077;-73
2022/08/28 07:56:42;;;;;;;22.40;3.88;;;;;;;-144.48;100.00;62369.91;4983077;28;20111;-72
2022/08/28 07:59:09;;;;;;;25.77;4.50;;;;;;;-144.48;100.00;62369.91;5005813;28;20049;-70
2022/08/28 08:01:41;;;;;;;20.98;4.57;;;;;;;-144.48;100.00;62369.91;4996130;28;20109;-69
2022/08/28 08:04:08;;;;;;;21.70;5.03;;;;;;;-144.48;100.00;62369.91;5004512;28;20034;-69
2022/08/28 08:06:36;;;;;;;25.85;4.95;;;;;;;-144.48;100.00;62369.91;4988776;28;20124;-69
2022/08/28 08:09:04;;;;;;;18.63;4.03;;;;;;;-144.48;100.00;62369.91;4994515;28;20022;-67
2022/08/28 08:11:30;;;;;;;15.30;3.65;;;;;;;-144.48;100.00;62369.91;5004721;28;20018;-72
2022/08/28 08:13:56;;;;;;;17.60;4.55;;;;;;;-144.48;100.00;62369.91;4992235;28;20023;-71
2022/08/28 08:16:24;;;;;;;15.82;4.30;;;;;;;-144.48;100.00;62369.91;4996804;28;20053;-71
2022/08/28 08:18:50;;;;;;;18.25;4.00;;;;;;;-144.48;100.00;62369.91;5012333;28;20038;-70
2022/08/28 08:21:18;;;;;;;13.93;3.53;;;;;;;-144.48;100.00;62369.91;4991218;28;20026;-72
2022/08/28 08:23:45;;;;;;;15.68;4.70;;;;;;;-144.48;100.00;62369.91;4995712;28;20022;-71
2022/08/28 08:26:13;;;;;;;24.38;4.30;;;;;;;-144.48;100.00;62369.91;4999973;28;20038;-69
2022/08/28 08:28:40;;;;;;;22.45;5.18;;;;;;;-144.48;100.00;62369.91;4995836;28;20116;-69
2022/08/28 08:31:08;;;;;;;17.20;3.60;;;;;;;-144.48;100.00;62369.91;4980666;28;20027;-73
2022/08/28 08:33:37;;;;;;;19.08;4.53;;;;;;;-144.48;100.00;62369.91;4981138;28;20027;-70
2022/08/28 08:36:03;;;;;;;14.90;4.10;;;;;;;-144.48;100.00;62369.91;4986842;28;20468;-70
2022/08/28 08:38:29;;;;;;;19.27;4.45;;;;;;;-144.48;100.00;62369.91;4977140;28;20034;-69
2022/08/28 08:40:55;;;;;;;18.75;4.10;;;;;;;-144.48;100.00;62369.91;4987647;28;20172;-70
2022/08/28 08:43:22;;;;;;;14.65;3.60;;;;;;;-144.48;100.00;62369.91;4974221;28;20258;-70
2022/08/28 08:45:51;;;;;;;23.45;4.15;;;;;;;-144.48;100.00;62369.91;4985332;28;20488;-75
2022/08/28 08:48:33;;;;;;;17.65;3.78;;;;;;;-144.48;100.00;62369.91;4992605;28;20045;-72
2022/08/28 08:51:03;;;;;;;20.85;4.22;;;;;;;-144.48;100.00;62369.91;4996711;28;20392;-72
2022/08/28 08:53:42;;;;;;;15.52;4.43;;;;;;;-144.48;100.00;62369.91;5002267;28;20059;-69
2022/08/28 08:56:14;;;;;;;26.15;4.60;;;;;;;-144.48;100.00;62369.91;5001527;28;20038;-69
2022/08/28 08:58:46;;;;;;;17.85;4.32;;;;;;;-144.48;100.00;62369.91;4998530;28;20038;-68
2022/08/28 09:01:27;;;;;;;18.08;4.22;;;;;;;-144.48;100.00;62369.91;4972537;28;20023;-70
2022/08/28 09:04:21;;;;;;;20.55;4.68;;;;;;;-144.48;100.00;62369.91;4978148;28;20508;-67
2022/08/28 09:07:02;;;;;;;21.80;4.00;;;;;;;-144.48;100.00;62369.91;4979906;28;20027;-71
2022/08/28 09:09:39;;;;;;;22.02;5.13;;;;;;;-144.48;100.00;62369.91;4982012;28;20025;-70
2022/08/28 09:12:05;;;;;;;20.58;4.53;;;;;;;-144.48;100.00;62369.91;5011241;28;20032;-69
2022/08/28 09:15:08;;;;;;;14.68;4.30;;;;;;;-144.48;100.00;62369.91;4999776;28;20019;-68
2022/08/28 09:17:56;;;;;;;21.05;4.63;;;;;;;-144.48;100.00;62369.91;4980245;28;20030;-69
2022/08/28 09:20:27;;;;;;;15.60;4.32;;;;;;;-144.48;100.00;62369.91;4991783;28;20113;-69
2022/08/28 09:22:53;;;;;;;19.10;4.30;;;;;;;-144.48;100.00;62369.91;5006911;28;20053;-71
2022/08/28 09:25:43;;;;;;;17.02;4.75;;;;;;;-144.48;100.00;62369.91;5005163;28;20421;-69
2022/08/28 09:28:13;;;;;;;18.90;4.15;;;;;;;-144.48;100.00;62369.91;4999424;28;20030;-71
2022/08/28 09:30:40;;;;;;;13.45;4.00;;;;;;;-144.48;100.00;62369.91;4986537;28;20027;-70
2022/08/28 09:33:05;;;;;;;18.92;4.40;;;;;;;-144.48;100.00;62369.91;4988989;28;20073;-69
2022/08/28 09:35:34;;;;;;;18.98;4.97;;;;;;;-144.48;100.00;62369.91;4991248;28;20026;-69
2022/08/28 09:38:20;;;;;;;22.45;4.28;;;;;;;-144.48;100.00;62369.91;4982548;28;20419;-70
2022/08/28 09:43:32;;;;;;;17.65;3.78;;;;;;;-144.48;100.00;62369.91;4981756;28;20483;-73
2022/08/28 09:46:15;;;;;;;21.63;5.05;;;;;;;-144.48;100.00;62369.91;4983972;28;20389;-69
2022/08/28 09:48:42;;;;;;;24.27;4.38;;;;;;;-144.48;100.00;62369.91;4991036;28;20073;-68
2022/08/28 09:51:11;;;;;;;20.37;3.87;;;;;;;-144.48;100.00;62369.91;4995563;28;20484;-70
2022/08/28 09:53:55;;;;;;;19.40;3.70;;;;;;;-144.48;100.00;62369.91;4979127;28;20025;-68
2022/08/28 09:56:38;;;;;;;14.93;3.70;;;;;;;-144.48;100.00;62369.91;4976581;28;20022;-70
2022/08/28 09:59:21;;;;;;;18.75;4.05;;;;;;;-144.48;100.00;62369.91;4984247;28;20091;-67
2022/08/28 10:01:53;;;;;;;19.25;3.55;;;;;;;-144.48;100.00;62369.91;5010830;28;20029;-67
2022/08/28 10:04:44;;;;;;;13.23;3.53;;;;;;;-144.48;100.00;62369.91;4988557;28;20114;-69
2022/08/28 10:07:47;;;;;;;16.25;3.78;;;;;;;-144.48;100.00;62369.91;4986272;28;20032;-69
2022/08/28 10:10:31;;;;;;;14.63;3.35;;;;;;;-144.48;100.00;62369.91;4970875;28;20488;-71
2022/08/28 10:13:05;;;;;;;18.33;4.60;;;;;;;-144.48;100.00;62369.91;4975542;28;20034;-74
2022/08/28 10:15:40;;;;;;;13.52;2.97;;;;;;;-144.48;100.00;62369.91;4983569;28;20027;-75
2022/08/28 10:18:29;;;;;;;11.75;3.38;;;;;;;-144.48;100.00;62369.91;4982018;28;20041;-73
2022/08/28 10:21:12;;;;;;;24.80;3.55;;;;;;;-144.48;100.00;62369.91;4984435;28;20108;-73
2022/08/28 10:23:43;;;;;;;22.25;5.10;;;;;;;-144.48;100.00;62369.91;4982701;28;20035;-70
2022/08/28 10:26:30;;;;;;;15.20;3.28;;;;;;;-144.48;100.00;62369.91;4983464;28;20031;-71
2022/08/28 10:29:10;;;;;;;15.25;3.45;;;;;;;-144.48;100.00;62369.91;4986178;28;20030;-70
2022/08/28 10:31:51;;;;;;;23.23;4.35;;;;;;;-144.48;100.00;62369.91;4983631;28;20040;-69
2022/08/28 10:34:28;;;;;;;16.95;3.60;;;;;;;-144.48;100.00;62369.91;4983118;28;20038;-69
2022/08/28 10:37:15;;;;;;;17.05;3.15;;;;;;;-144.48;100.00;62369.91;4987308;28;20033;-69
2022/08/28 10:39:46;;;;;;;15.38;3.95;;;;;;;-144.48;100.00;62369.91;4992738;28;20116;-69
2022/08/28 10:42:14;;;;;;;15.60;3.70;;;;;;;-144.48;100.00;62369.91;4993704;28;20057;-70
2022/08/28 10:44:46;;;;;;;17.75;3.47;;;;;;;-144.48;100.00;62369.91;4989546;28;20634;-68
2022/08/28 10:47:13;;;;;;;14.60;3.10;;;;;;;-144.48;100.00;62369.91;4974641;28;20602;-72
2022/08/28 10:49:41;;;;;;;13.38;3.05;;;;;;;-144.48;100.00;62369.91;4983048;28;20125;-67
2022/08/28 10:52:29;;;;;;;11.98;3.05;;;;;;;-144.48;100.00;62369.91;4982047;28;20361;-70
2022/08/28 10:55:13;;;;;;;14.80;3.22;;;;;;;-144.48;100.00;62369.91;4973965;28;20124;-71
2022/08/28 10:57:43;;;;;;;13.27;3.47;;;;;;;-144.48;100.00;62369.91;4974105;28;20026;-69
2022/08/28 11:00:15;;;;;;;14.80;3.40;;;;;;;-144.48;100.00;62369.91;4974487;28;20019;-72
2022/08/28 11:02:49;;;;;;;12.55;3.67;;;;;;;-144.48;100.00;62369.91;4971237;28;20029;-71
2022/08/28 11:05:19;;;;;;;17.52;3.53;;;;;;;-144.48;100.00;62369.91;4970402;28;20503;-71
2022/08/28 11:07:56;;;;;;;14.63;3.08;;;;;;;-144.48;100.00;62369.91;4973757;28;20426;-72
2022/08/28 11:10:37;;;;;;;21.85;4.18;;;;;;;-144.48;100.00;62369.91;4972608;28;20035;-70
2022/08/28 11:13:05;;;;;;;15.45;3.35;;;;;;;-144.48;100.00;62369.91;4978780;28;20041;-73
2022/08/28 11:15:31;;;;;;;12.85;3.22;;;;;;;-144.48;100.00;62369.91;4975284;28;20029;-72
2022/08/28 11:18:30;;;;;;;12.63;3.22;;;;;;;-144.48;100.00;62369.91;4970686;28;20094;-74
2022/08/28 11:21:11;;;;;;;11.63;3.00;;;;;;;-144.48;100.00;62369.91;4977139;28;20038;-67